createdAt,value
2018-03-06T00:00:44.973Z,98862.83
2018-03-06T00:01:48.284Z,98861.62
2018-03-06T00:02:51.839Z,98856.89
2018-03-06T00:03:55.244Z,98859.19
2018-03-06T00:04:58.629Z,98860.51
2018-03-06T00:06:02.027Z,98860.51
2018-03-06T00:07:05.480Z,98849.63
2018-03-06T00:08:09.119Z,98858.35
2018-03-06T00:09:13.829Z,98854.98
2018-03-06T00:10:17.338Z,98860.34
2018-03-06T00:11:20.984Z,98858.59
2018-03-06T00:12:25.685Z,98866.70
2018-03-06T00:13:29.219Z,98866.84
2018-03-06T00:14:32.552Z,98864.69
2018-03-06T00:15:35.908Z,98863.86
2018-03-06T00:16:39.382Z,98863.13
2018-03-06T00:17:43.055Z,98860.55
2018-03-06T00:18:47.241Z,98859.58
2018-03-06T00:19:51.542Z,98859.23
2018-03-06T00:20:54.955Z,98858.40
2018-03-06T00:21:58.276Z,98861.05
2018-03-06T00:23:01.662Z,98855.83
2018-03-06T00:24:04.980Z,98857.08
2018-03-06T00:25:08.282Z,98859.80
2018-03-06T00:26:11.625Z,98859.38
2018-03-06T00:28:17.554Z,98865.25
2018-03-06T00:29:20.865Z,98865.81
2018-03-06T00:30:24.230Z,98867.63
2018-03-06T00:31:27.597Z,98865.88
2018-03-06T00:32:30.983Z,98866.89
2018-03-06T00:33:34.332Z,98858.13
2018-03-06T00:34:37.696Z,98863.48
2018-03-06T00:35:41.095Z,98865.71
2018-03-06T00:36:44.452Z,98861.81
2018-03-06T00:37:47.810Z,98859.28
2018-03-06T00:38:51.175Z,98868.11
2018-03-06T00:39:54.524Z,98865.13
2018-03-06T00:40:57.874Z,98866.59
2018-03-06T00:42:01.249Z,98856.53
2018-03-06T00:43:04.661Z,98859.59
2018-03-06T00:44:08.019Z,98857.09
2018-03-06T00:45:11.449Z,98858.91
2018-03-06T00:46:14.776Z,98860.30
2018-03-06T00:47:18.215Z,98856.44
2018-03-06T00:48:21.737Z,98856.02
2018-03-06T00:49:25.160Z,98857.83
2018-03-06T00:50:28.635Z,98848.65
2018-03-06T00:51:32.370Z,98850.87
2018-03-06T00:52:35.768Z,98847.40
2018-03-06T00:53:39.150Z,98851.78
2018-03-06T00:54:43.342Z,98845.24
2018-03-06T00:55:47.000Z,98850.14
2018-03-06T00:56:50.325Z,98850.70
2018-03-06T00:57:53.670Z,98846.73
2018-03-06T00:58:57.254Z,98845.00
2018-03-06T01:00:00.564Z,98844.66
2018-03-06T01:01:03.922Z,98844.66
2018-03-06T01:02:07.609Z,98849.63
2018-03-06T01:03:11.012Z,98849.28
2018-03-06T01:04:14.333Z,98850.67
2018-03-06T01:05:17.777Z,98851.16
2018-03-06T01:06:21.140Z,98853.90
2018-03-06T01:07:24.460Z,98850.42
2018-03-06T01:08:27.823Z,98846.53
2018-03-06T01:09:31.132Z,98849.66
2018-03-06T01:10:35.443Z,98846.67
2018-03-06T01:11:38.857Z,98841.49
2018-03-06T01:12:42.500Z,98844.28
2018-03-06T01:13:47.392Z,98840.80
2018-03-06T01:14:50.809Z,98841.70
2018-03-06T01:15:54.263Z,98840.98
2018-03-06T01:16:57.613Z,98841.05
2018-03-06T01:18:00.989Z,98843.27
2018-03-06T01:19:06.026Z,98839.80
2018-03-06T01:20:09.468Z,98847.79
2018-03-06T01:21:12.825Z,98844.73
2018-03-06T01:22:16.291Z,98844.00
2018-03-06T01:23:19.637Z,98851.02
2018-03-06T01:24:23.098Z,98846.36
2018-03-06T01:25:26.537Z,98845.63
2018-03-06T01:26:29.854Z,98841.74
2018-03-06T01:27:33.215Z,98846.19
2018-03-06T01:28:36.592Z,98838.86
2018-03-06T01:29:39.972Z,98838.92
2018-03-06T01:30:43.298Z,98843.37
2018-03-06T01:31:46.620Z,98846.16
2018-03-06T01:32:49.933Z,98844.52
2018-03-06T01:33:53.288Z,98844.17
2018-03-06T01:34:56.634Z,98840.70
2018-03-06T01:36:00.038Z,98833.75
2018-03-06T01:37:03.427Z,98839.13
2018-03-06T01:38:06.748Z,98836.49
2018-03-06T01:39:10.185Z,98833.50
2018-03-06T01:40:13.528Z,98829.20
2018-03-06T01:41:16.918Z,98827.87
2018-03-06T01:42:20.300Z,98835.80
2018-03-06T01:43:23.678Z,98825.23
2018-03-06T01:44:26.989Z,98827.05
2018-03-06T01:45:30.476Z,98824.02
2018-03-06T01:46:33.811Z,98821.77
2018-03-06T01:47:37.144Z,98822.17
2018-03-06T01:48:41.008Z,98824.41
2018-03-06T01:49:44.770Z,98824.02
2018-03-06T01:50:48.176Z,98816.09
2018-03-06T01:51:58.265Z,98816.41
2018-03-06T01:53:01.700Z,98814.84
2018-03-06T01:54:05.018Z,98812.52
2018-03-06T01:55:08.320Z,98815.09
2018-03-06T01:56:11.665Z,98811.05
2018-03-06T01:57:15.047Z,98810.39
2018-03-06T01:58:18.393Z,98807.69
2018-03-06T01:59:21.700Z,98806.71
2018-03-06T02:00:25.088Z,98814.56
2018-03-06T02:01:28.429Z,98810.42
2018-03-06T02:02:31.756Z,98809.45
2018-03-06T02:03:35.957Z,98809.28
2018-03-06T02:04:39.606Z,98806.43
2018-03-06T02:05:43.033Z,98802.70
2018-03-06T02:06:46.449Z,98798.50
2018-03-06T02:07:50.625Z,98798.29
2018-03-06T02:08:54.029Z,98807.70
2018-03-06T02:09:57.447Z,98804.82
2018-03-06T02:11:00.813Z,98801.62
2018-03-06T02:12:04.200Z,98801.86
2018-03-06T02:13:07.614Z,98799.91
2018-03-06T02:14:10.936Z,98801.96
2018-03-06T02:15:14.360Z,98802.23
2018-03-06T02:16:18.495Z,98802.48
2018-03-06T02:17:21.906Z,98802.34
2018-03-06T02:18:25.236Z,98800.94
2018-03-06T02:19:30.232Z,98805.56
2018-03-06T02:20:33.561Z,98804.09
2018-03-06T02:21:37.076Z,98810.95
2018-03-06T02:22:41.241Z,98800.23
2018-03-06T02:23:44.623Z,98805.27
2018-03-06T02:24:48.145Z,98804.37
2018-03-06T02:25:51.488Z,98795.43
2018-03-06T02:26:54.839Z,98792.57
2018-03-06T02:27:58.252Z,98797.61
2018-03-06T02:29:01.585Z,98798.52
2018-03-06T02:30:04.957Z,98797.13
2018-03-06T02:31:08.404Z,98799.59
2018-03-06T02:32:12.861Z,98800.84
2018-03-06T02:33:16.212Z,98801.11
2018-03-06T02:34:19.700Z,98797.98
2018-03-06T02:35:23.082Z,98796.97
2018-03-06T02:36:26.406Z,98799.47
2018-03-06T02:37:29.795Z,98806.31
2018-03-06T02:38:33.186Z,98796.16
2018-03-06T02:39:36.560Z,98791.63
2018-03-06T02:40:39.910Z,98798.66
2018-03-06T02:41:43.231Z,98798.17
2018-03-06T02:42:46.549Z,98798.90
2018-03-06T02:43:50.013Z,98788.74
2018-03-06T02:44:53.351Z,98790.82
2018-03-06T02:46:09.639Z,98789.50
2018-03-06T02:47:13.068Z,98791.31
2018-03-06T02:48:16.448Z,98794.69
2018-03-06T02:49:19.866Z,98792.88
2018-03-06T02:50:23.222Z,98789.25
2018-03-06T02:51:26.542Z,98786.53
2018-03-06T02:52:29.955Z,98791.23
2018-03-06T02:53:33.372Z,98778.01
2018-03-06T02:54:36.790Z,98779.60
2018-03-06T02:55:40.149Z,98776.95
2018-03-06T02:56:43.466Z,98773.72
2018-03-06T02:57:46.847Z,98773.16
2018-03-06T02:58:50.233Z,98773.58
2018-03-06T02:59:53.628Z,98769.53
2018-03-06T03:00:56.949Z,98773.02
2018-03-06T03:02:00.426Z,98761.50
2018-03-06T03:03:03.777Z,98771.52
2018-03-06T03:04:07.174Z,98767.96
2018-03-06T03:05:10.573Z,98766.15
2018-03-06T03:07:16.328Z,98763.74
2018-03-06T03:08:19.771Z,98768.05
2018-03-06T03:09:23.112Z,98764.02
2018-03-06T03:10:26.489Z,98769.61
2018-03-06T03:12:39.401Z,98767.48
2018-03-06T03:13:42.757Z,98766.82
2018-03-06T03:14:46.086Z,98765.50
2018-03-06T03:15:49.506Z,98765.42
2018-03-06T03:16:52.883Z,98773.36
2018-03-06T03:17:56.243Z,98769.39
2018-03-06T03:18:59.644Z,98764.11
2018-03-06T03:20:03.990Z,98766.75
2018-03-06T03:21:07.334Z,98763.20
2018-03-06T03:22:10.739Z,98766.16
2018-03-06T03:23:14.158Z,98764.83
2018-03-06T03:24:17.533Z,98768.38
2018-03-06T03:25:21.006Z,98762.60
2018-03-06T03:26:24.372Z,98768.23
2018-03-06T03:27:27.696Z,98762.11
2018-03-06T03:28:31.034Z,98766.56
2018-03-06T03:29:34.452Z,98763.44
2018-03-06T03:30:37.809Z,98756.83
2018-03-06T03:31:41.153Z,98762.53
2018-03-06T03:32:44.513Z,98762.45
2018-03-06T03:33:47.948Z,98761.13
2018-03-06T03:34:51.302Z,98767.15
2018-03-06T03:35:54.659Z,98761.86
2018-03-06T03:36:58.153Z,98759.63
2018-03-06T03:38:01.517Z,98761.38
2018-03-06T03:39:04.927Z,98763.59
2018-03-06T03:40:08.304Z,98755.25
2018-03-06T03:41:11.821Z,98767.56
2018-03-06T03:42:15.216Z,98769.65
2018-03-06T03:43:18.643Z,98764.36
2018-03-06T03:44:22.023Z,98764.84
2018-03-06T03:45:26.994Z,98765.75
2018-03-06T03:46:30.331Z,98764.43
2018-03-06T03:47:33.668Z,98768.81
2018-03-06T03:48:37.076Z,98762.20
2018-03-06T03:49:40.393Z,98759.06
2018-03-06T03:50:43.809Z,98760.31
2018-03-06T03:51:47.323Z,98763.87
2018-03-06T03:52:51.229Z,98759.48
2018-03-06T03:53:54.653Z,98762.12
2018-03-06T03:54:58.046Z,98759.97
2018-03-06T03:56:01.381Z,98762.20
2018-03-06T03:57:05.130Z,98762.62
2018-03-06T03:58:08.538Z,98760.47
2018-03-06T03:59:11.890Z,98762.27
2018-03-06T04:00:15.284Z,98760.16
2018-03-06T04:01:18.633Z,98764.13
2018-03-06T04:02:22.053Z,98763.59
2018-03-06T04:03:25.466Z,98759.22
2018-03-06T04:04:28.783Z,98760.05
2018-03-06T04:05:32.191Z,98755.66
2018-03-06T04:06:35.558Z,98757.41
2018-03-06T04:07:38.914Z,98755.66
2018-03-06T04:08:42.250Z,98758.73
2018-03-06T04:09:45.640Z,98749.05
2018-03-06T04:10:49.139Z,98758.41
2018-03-06T04:11:52.578Z,98754.94
2018-03-06T04:12:56.013Z,98758.56
2018-03-06T04:13:59.396Z,98754.52
2018-03-06T04:15:02.789Z,98751.05
2018-03-06T04:16:06.124Z,98749.72
2018-03-06T04:17:09.489Z,98750.70
2018-03-06T04:18:12.905Z,98752.93
2018-03-06T04:19:16.354Z,98746.84
2018-03-06T04:20:21.193Z,98748.55
2018-03-06T04:21:24.590Z,98743.44
2018-03-06T04:22:28.025Z,98749.56
2018-03-06T04:23:31.390Z,98747.41
2018-03-06T04:24:34.897Z,98743.92
2018-03-06T04:25:38.254Z,98754.58
2018-03-06T04:26:41.762Z,98741.77
2018-03-06T04:27:45.096Z,98754.99
2018-03-06T04:28:48.520Z,98744.00
2018-03-06T04:29:51.898Z,98747.55
2018-03-06T04:30:55.400Z,98747.66
2018-03-06T04:31:58.796Z,98742.44
2018-03-06T04:33:02.120Z,98741.61
2018-03-06T04:34:05.457Z,98735.08
2018-03-06T04:35:08.886Z,98738.63
2018-03-06T04:36:12.396Z,98737.30
2018-03-06T04:37:15.711Z,98740.12
2018-03-06T04:38:19.124Z,98742.35
2018-03-06T04:39:22.444Z,98741.11
2018-03-06T04:40:25.812Z,98741.03
2018-03-06T04:41:29.567Z,98746.88
2018-03-06T04:42:33.024Z,98743.41
2018-03-06T04:43:36.379Z,98740.87
2018-03-06T04:44:39.713Z,98741.28
2018-03-06T04:45:43.145Z,98741.77
2018-03-06T04:46:46.466Z,98740.34
2018-03-06T04:47:49.956Z,98740.52
2018-03-06T04:48:53.320Z,98744.07
2018-03-06T04:49:56.715Z,98743.17
2018-03-06T04:51:00.228Z,98742.33
2018-03-06T04:52:03.789Z,98747.20
2018-03-06T04:53:07.114Z,98752.56
2018-03-06T04:54:10.525Z,98741.99
2018-03-06T04:55:13.895Z,98740.67
2018-03-06T04:56:17.366Z,98738.30
2018-03-06T04:57:20.785Z,98742.67
2018-03-06T04:58:25.039Z,98743.09
2018-03-06T04:59:28.421Z,98745.25
2018-03-06T05:00:31.726Z,98742.98
2018-03-06T05:01:35.304Z,98741.66
2018-03-06T05:02:38.674Z,98744.41
2018-03-06T05:03:42.025Z,98745.73
2018-03-06T05:04:45.464Z,98737.31
2018-03-06T05:05:48.796Z,98741.66
2018-03-06T05:06:52.213Z,98745.56
2018-03-06T05:07:55.536Z,98746.81
2018-03-06T05:08:58.897Z,98747.22
2018-03-06T05:10:02.254Z,98743.67
2018-03-06T05:11:05.650Z,98742.77
2018-03-06T05:12:09.773Z,98745.34
2018-03-06T05:13:13.118Z,98741.76
2018-03-06T05:14:16.504Z,98748.37
2018-03-06T05:15:19.829Z,98742.17
2018-03-06T05:16:23.304Z,98742.93
2018-03-06T05:17:26.708Z,98736.81
2018-03-06T05:18:30.087Z,98739.88
2018-03-06T05:19:33.505Z,98742.44
2018-03-06T05:20:37.720Z,98739.80
2018-03-06T05:21:41.074Z,98739.38
2018-03-06T05:22:44.477Z,98741.53
2018-03-06T05:23:47.781Z,98740.62
2018-03-06T05:24:51.227Z,98736.25
2018-03-06T05:25:54.527Z,98736.97
2018-03-06T05:26:57.923Z,98738.41
2018-03-06T05:28:01.343Z,98741.95
2018-03-06T05:29:04.696Z,98741.53
2018-03-06T05:30:08.151Z,98738.06
2018-03-06T05:31:11.490Z,98738.48
2018-03-06T05:32:14.802Z,98746.48
2018-03-06T05:33:18.153Z,98743.50
2018-03-06T05:34:21.532Z,98745.41
2018-03-06T05:35:24.876Z,98751.02
2018-03-06T05:36:28.225Z,98747.98
2018-03-06T05:37:31.688Z,98740.05
2018-03-06T05:38:35.235Z,98748.37
2018-03-06T05:39:38.651Z,98745.83
2018-03-06T05:40:42.125Z,98742.28
2018-03-06T05:41:45.595Z,98748.89
2018-03-06T05:42:49.009Z,98748.78
2018-03-06T05:43:52.353Z,98751.95
2018-03-06T05:44:55.841Z,98756.64
2018-03-06T05:46:00.116Z,98751.84
2018-03-06T05:47:03.486Z,98751.77
2018-03-06T05:48:06.839Z,98749.95
2018-03-06T05:49:10.215Z,98747.66
2018-03-06T05:50:13.623Z,98749.89
2018-03-06T05:51:16.941Z,98747.23
2018-03-06T05:52:20.474Z,98754.34
2018-03-06T05:53:23.826Z,98749.89
2018-03-06T05:54:27.340Z,98752.19
2018-03-06T05:55:30.850Z,98748.22
2018-03-06T05:56:34.198Z,98742.52
2018-03-06T05:57:37.520Z,98749.95
2018-03-06T05:58:40.987Z,98747.31
2018-03-06T05:59:44.336Z,98742.02
2018-03-06T06:00:47.824Z,98743.84
2018-03-06T06:01:51.152Z,98746.48
2018-03-06T06:02:54.532Z,98749.05
2018-03-06T06:03:57.848Z,98755.25
2018-03-06T06:05:01.197Z,98749.55
2018-03-06T06:06:04.509Z,98745.58
2018-03-06T06:07:07.828Z,98748.64
2018-03-06T06:08:11.274Z,98749.95
2018-03-06T06:09:14.765Z,98749.55
2018-03-06T06:10:18.160Z,98747.80
2018-03-06T06:11:21.701Z,98750.86
2018-03-06T06:12:25.056Z,98750.03
2018-03-06T06:13:28.612Z,98746.55
2018-03-06T06:14:31.961Z,98750.11
2018-03-06T06:15:35.364Z,98754.48
2018-03-06T06:16:38.789Z,98755.81
2018-03-06T06:17:42.121Z,98754.48
2018-03-06T06:18:45.494Z,98758.87
2018-03-06T06:19:48.936Z,98758.80
2018-03-06T06:20:53.277Z,98764.50
2018-03-06T06:21:56.631Z,98767.14
2018-03-06T06:23:00.007Z,98766.73
2018-03-06T06:24:03.379Z,98772.09
2018-03-06T06:25:06.772Z,98764.58
2018-03-06T06:26:10.149Z,98764.16
2018-03-06T06:27:13.518Z,98768.55
2018-03-06T06:28:16.869Z,98772.44
2018-03-06T06:29:20.406Z,98775.98
2018-03-06T06:30:23.897Z,98773.76
2018-03-06T06:31:27.262Z,98772.85
2018-03-06T06:32:30.582Z,98773.76
2018-03-06T06:33:33.970Z,98769.38
2018-03-06T06:34:38.065Z,98778.70
2018-03-06T06:35:41.613Z,98776.66
2018-03-06T06:36:45.119Z,98768.80
2018-03-06T06:37:48.478Z,98777.14
2018-03-06T06:38:51.912Z,98776.23
2018-03-06T06:39:55.247Z,98774.50
2018-03-06T06:40:58.565Z,98778.39
2018-03-06T06:42:02.045Z,98774.42
2018-03-06T06:43:05.512Z,98783.68
2018-03-06T06:44:08.883Z,98779.72
2018-03-06T06:45:12.998Z,98784.89
2018-03-06T06:46:17.162Z,98782.59
2018-03-06T06:47:20.820Z,98781.27
2018-03-06T06:48:24.284Z,98786.80
2018-03-06T06:49:27.736Z,98783.18
2018-03-06T06:50:31.297Z,98773.44
2018-03-06T06:51:35.552Z,98779.89
2018-03-06T06:52:39.609Z,98778.88
2018-03-06T06:53:43.037Z,98773.94
2018-03-06T06:54:46.485Z,98780.06
2018-03-06T06:55:49.869Z,98780.89
2018-03-06T06:56:53.195Z,98774.52
2018-03-06T06:57:56.749Z,98778.41
2018-03-06T06:59:00.071Z,98777.50
2018-03-06T07:00:03.530Z,98778.34
2018-03-06T07:01:06.832Z,98782.55
2018-03-06T07:02:10.210Z,98774.53
2018-03-06T07:03:14.423Z,98774.87
2018-03-06T07:04:17.808Z,98778.33
2018-03-06T07:05:21.194Z,98777.42
2018-03-06T07:06:24.664Z,98771.64
2018-03-06T07:07:28.363Z,98776.93
2018-03-06T07:08:31.803Z,98787.09
2018-03-06T07:09:35.137Z,98775.19
2018-03-06T07:10:38.565Z,98774.77
2018-03-06T07:11:41.894Z,98775.45
2018-03-06T07:12:45.450Z,98780.75
2018-03-06T07:13:48.809Z,98773.13
2018-03-06T07:14:52.112Z,98775.20
2018-03-06T07:15:55.678Z,98775.13
2018-03-06T07:16:59.306Z,98771.09
2018-03-06T07:18:02.689Z,98775.06
2018-03-06T07:19:06.672Z,98773.63
2018-03-06T07:20:10.076Z,98773.73
2018-03-06T07:21:14.356Z,98770.98
2018-03-06T07:22:17.656Z,98773.21
2018-03-06T07:23:21.159Z,98776.77
2018-03-06T07:24:24.568Z,98776.77
2018-03-06T07:25:28.022Z,98778.43
2018-03-06T07:26:31.424Z,98776.20
2018-03-06T07:27:34.911Z,98775.78
2018-03-06T07:28:38.245Z,98773.06
2018-03-06T07:29:41.795Z,98776.55
2018-03-06T07:30:45.228Z,98775.04
2018-03-06T07:31:48.581Z,98770.92
2018-03-06T07:32:51.947Z,98778.86
2018-03-06T07:33:55.461Z,98780.19
2018-03-06T07:34:58.858Z,98778.19
2018-03-06T07:36:02.791Z,98778.45
2018-03-06T07:37:06.431Z,98782.25
2018-03-06T07:38:10.106Z,98783.00
2018-03-06T07:39:13.515Z,98782.93
2018-03-06T07:40:16.965Z,98782.02
2018-03-06T07:41:20.668Z,98783.34
2018-03-06T07:42:24.088Z,98786.06
2018-03-06T07:43:27.423Z,98780.28
2018-03-06T07:44:30.754Z,98789.13
2018-03-06T07:45:34.160Z,98787.21
2018-03-06T07:46:37.548Z,98780.18
2018-03-06T07:47:42.705Z,98782.33
2018-03-06T07:48:46.286Z,98783.58
2018-03-06T07:49:49.863Z,98776.48
2018-03-06T07:50:54.181Z,98778.22
2018-03-06T07:51:57.866Z,98772.84
2018-03-06T07:53:01.169Z,98777.12
2018-03-06T07:54:04.634Z,98775.73
2018-03-06T07:55:07.919Z,98769.88
2018-03-06T07:56:11.394Z,98770.29
2018-03-06T07:57:14.740Z,98774.64
2018-03-06T07:58:19.244Z,98773.66
2018-03-06T07:59:22.976Z,98771.92
2018-03-06T08:00:26.339Z,98770.19
2018-03-06T08:01:29.773Z,98771.44
2018-03-06T08:02:33.328Z,98774.84
2018-03-06T08:03:36.848Z,98771.17
2018-03-06T08:04:40.277Z,98770.77
2018-03-06T08:05:43.680Z,98761.42
2018-03-06T08:06:47.205Z,98764.34
2018-03-06T08:07:50.933Z,98768.95
2018-03-06T08:08:54.351Z,98766.96
2018-03-06T08:09:57.768Z,98769.88
2018-03-06T08:11:02.313Z,98770.22
2018-03-06T08:12:05.689Z,98767.80
2018-03-06T08:13:08.996Z,98765.03
2018-03-06T08:14:12.508Z,98773.44
2018-03-06T08:15:15.879Z,98778.78
2018-03-06T08:16:19.271Z,98778.92
2018-03-06T08:17:23.571Z,98771.34
2018-03-06T08:18:26.917Z,98772.32
2018-03-06T08:19:30.427Z,98772.80
2018-03-06T08:20:33.897Z,98777.84
2018-03-06T08:21:38.202Z,98777.67
2018-03-06T08:22:41.754Z,98776.41
2018-03-06T08:23:45.084Z,98778.05
2018-03-06T08:24:48.488Z,98776.30
2018-03-06T08:25:51.833Z,98775.17
2018-03-06T08:26:55.235Z,98774.53
2018-03-06T08:27:58.644Z,98770.38
2018-03-06T08:29:02.028Z,98771.22
2018-03-06T08:30:05.343Z,98771.91
2018-03-06T08:31:08.680Z,98770.66
2018-03-06T08:32:12.120Z,98773.64
2018-03-06T08:33:15.504Z,98772.13
2018-03-06T08:35:27.435Z,98773.15
2018-03-06T08:36:30.799Z,98779.17
2018-03-06T08:37:34.138Z,98772.38
2018-03-06T08:38:37.556Z,98773.02
2018-03-06T08:39:41.083Z,98773.28
2018-03-06T08:40:44.569Z,98773.92
2018-03-06T08:41:47.892Z,98770.42
2018-03-06T08:42:51.303Z,98775.30
2018-03-06T08:43:54.756Z,98772.45
2018-03-06T08:44:58.106Z,98772.70
2018-03-06T08:46:01.516Z,98770.42
2018-03-06T08:47:04.883Z,98775.62
2018-03-06T08:48:08.297Z,98769.73
2018-03-06T08:49:11.638Z,98773.03
2018-03-06T08:50:15.059Z,98771.88
2018-03-06T08:51:18.441Z,98773.34
2018-03-06T08:52:21.820Z,98766.85
2018-03-06T08:53:25.124Z,98769.16
2018-03-06T08:54:28.536Z,98772.48
2018-03-06T08:55:31.920Z,98768.55
2018-03-06T08:56:39.183Z,98772.34
2018-03-06T08:57:42.494Z,98776.05
2018-03-06T08:58:45.887Z,98771.83
2018-03-06T08:59:49.361Z,98771.47
2018-03-06T09:00:52.905Z,98773.94
2018-03-06T09:01:56.263Z,98775.73
2018-03-06T09:02:59.716Z,98774.66
2018-03-06T09:04:03.178Z,98773.00
2018-03-06T09:05:06.512Z,98771.03
2018-03-06T09:06:09.835Z,98777.92
2018-03-06T09:07:13.212Z,98779.36
2018-03-06T09:08:16.585Z,98774.95
2018-03-06T09:09:19.967Z,98773.80
2018-03-06T09:10:23.309Z,98777.86
2018-03-06T09:11:26.657Z,98780.78
2018-03-06T09:12:31.333Z,98779.31
2018-03-06T09:13:34.865Z,98770.60
2018-03-06T09:14:38.206Z,98770.52
2018-03-06T09:15:41.818Z,98770.60
2018-03-06T09:16:45.141Z,98766.40
2018-03-06T09:17:48.507Z,98770.05
2018-03-06T09:18:51.813Z,98766.48
2018-03-06T09:19:55.390Z,98769.21
2018-03-06T09:20:58.790Z,98768.22
2018-03-06T09:22:04.366Z,98769.88
2018-03-06T09:23:07.675Z,98766.81
2018-03-06T09:24:11.063Z,98770.19
2018-03-06T09:25:14.399Z,98767.53
2018-03-06T09:26:17.781Z,98771.35
2018-03-06T09:27:21.088Z,98769.00
2018-03-06T09:28:24.412Z,98767.59
2018-03-06T09:29:28.712Z,98770.25
2018-03-06T09:30:32.157Z,98771.00
2018-03-06T09:31:35.508Z,98773.57
2018-03-06T09:32:39.267Z,98768.56
2018-03-06T09:33:43.364Z,98765.75
2018-03-06T09:34:46.739Z,98768.63
2018-03-06T09:35:50.155Z,98768.95
2018-03-06T09:36:53.647Z,98766.36
2018-03-06T09:37:56.975Z,98767.25
2018-03-06T09:39:00.332Z,98768.64
2018-03-06T09:40:03.767Z,98772.19
2018-03-06T09:41:07.179Z,98773.79
2018-03-06T09:42:10.652Z,98776.00
2018-03-06T09:43:14.051Z,98768.51
2018-03-06T09:44:17.509Z,98771.72
2018-03-06T09:45:21.033Z,98778.41
2018-03-06T09:46:24.385Z,98776.23
2018-03-06T09:47:28.126Z,98776.86
2018-03-06T09:48:31.476Z,98774.05
2018-03-06T09:49:34.847Z,98778.08
2018-03-06T09:50:38.171Z,98778.62
2018-03-06T09:51:42.784Z,98774.70
2018-03-06T09:52:47.829Z,98778.91
2018-03-06T09:53:51.562Z,98776.83
2018-03-06T09:54:55.358Z,98780.62
2018-03-06T09:55:59.003Z,98778.09
2018-03-06T09:57:02.414Z,98777.02
2018-03-06T09:58:05.800Z,98782.80
2018-03-06T09:59:09.112Z,98790.00
2018-03-06T10:00:12.545Z,98782.08
2018-03-06T10:01:15.989Z,98781.98
2018-03-06T10:02:19.425Z,98781.79
2018-03-06T10:03:22.939Z,98775.89
2018-03-06T10:04:26.464Z,98776.22
2018-03-06T10:05:29.869Z,98774.06
2018-03-06T10:06:33.322Z,98771.82
2018-03-06T10:07:36.713Z,98772.23
2018-03-06T10:08:40.116Z,98775.48
2018-03-06T10:09:43.600Z,98773.73
2018-03-06T10:10:47.192Z,98774.73
2018-03-06T10:11:50.636Z,98771.66
2018-03-06T10:12:54.096Z,98771.24
2018-03-06T10:13:57.541Z,98773.52
2018-03-06T10:15:00.945Z,98769.00
2018-03-06T10:16:04.324Z,98776.97
2018-03-06T10:17:07.706Z,98770.25
2018-03-06T10:18:11.127Z,98765.34
2018-03-06T10:19:14.503Z,98767.00
2018-03-06T10:20:17.869Z,98767.30
2018-03-06T10:21:21.318Z,98768.14
2018-03-06T10:22:25.207Z,98769.62
2018-03-06T10:23:28.564Z,98771.26
2018-03-06T10:24:32.011Z,98774.99
2018-03-06T10:25:35.444Z,98775.13
2018-03-06T10:26:38.825Z,98779.33
2018-03-06T10:27:42.212Z,98768.53
2018-03-06T10:28:45.675Z,98765.59
2018-03-06T10:29:49.005Z,98764.51
2018-03-06T10:30:52.488Z,98769.62
2018-03-06T10:31:55.838Z,98771.28
2018-03-06T10:32:59.180Z,98767.71
2018-03-06T10:34:02.557Z,98776.19
2018-03-06T10:35:05.914Z,98768.70
2018-03-06T10:36:09.246Z,98763.80
2018-03-06T10:37:12.620Z,98763.31
2018-03-06T10:38:15.924Z,98771.58
2018-03-06T10:39:19.314Z,98766.52
2018-03-06T10:40:23.106Z,98761.91
2018-03-06T10:41:26.455Z,98766.98
2018-03-06T10:42:30.314Z,98765.45
2018-03-06T10:43:33.698Z,98765.69
2018-03-06T10:44:37.090Z,98764.36
2018-03-06T10:45:40.455Z,98762.53
2018-03-06T10:46:43.885Z,98772.14
2018-03-06T10:47:48.176Z,98771.80
2018-03-06T10:48:51.490Z,98770.63
2018-03-06T10:49:55.874Z,98768.52
2018-03-06T10:50:59.781Z,98769.81
2018-03-06T10:52:03.134Z,98767.99
2018-03-06T10:53:06.480Z,98768.37
2018-03-06T10:54:09.900Z,98770.06
2018-03-06T10:55:13.301Z,98770.94
2018-03-06T10:56:16.718Z,98765.45
2018-03-06T10:57:20.055Z,98771.48
2018-03-06T10:58:23.490Z,98772.65
2018-03-06T10:59:26.842Z,98773.02
2018-03-06T11:00:36.097Z,98775.22
2018-03-06T11:01:39.498Z,98770.94
2018-03-06T11:02:43.116Z,98772.52
2018-03-06T11:03:46.594Z,98771.55
2018-03-06T11:04:49.978Z,98766.77
2018-03-06T11:05:53.317Z,98773.05
2018-03-06T11:06:56.721Z,98772.95
2018-03-06T11:08:00.124Z,98775.74
2018-03-06T11:09:03.621Z,98772.91
2018-03-06T11:10:07.070Z,98775.36
2018-03-06T11:11:10.457Z,98767.20
2018-03-06T11:12:13.848Z,98769.16
2018-03-06T11:13:17.244Z,98774.31
2018-03-06T11:14:20.640Z,98766.53
2018-03-06T11:15:24.013Z,98766.44
2018-03-06T11:16:27.404Z,98764.31
2018-03-06T11:17:31.015Z,98766.80
2018-03-06T11:18:34.384Z,98769.00
2018-03-06T11:19:37.760Z,98769.54
2018-03-06T11:20:41.248Z,98767.73
2018-03-06T11:21:44.644Z,98768.56
2018-03-06T11:22:48.076Z,98771.59
2018-03-06T11:23:51.479Z,98770.80
2018-03-06T11:24:54.900Z,98768.16
2018-03-06T11:25:58.282Z,98772.52
2018-03-06T11:27:01.694Z,98784.53
2018-03-06T11:28:05.244Z,98773.91
2018-03-06T11:29:08.636Z,98774.86
2018-03-06T11:30:12.015Z,98768.34
2018-03-06T11:31:15.396Z,98768.88
2018-03-06T11:32:18.695Z,98770.66
2018-03-06T11:33:22.132Z,98773.14
2018-03-06T11:34:25.532Z,98769.67
2018-03-06T11:35:29.000Z,98765.38
2018-03-06T11:36:32.384Z,98761.20
2018-03-06T11:37:35.719Z,98763.36
2018-03-06T11:38:39.126Z,98761.73
2018-03-06T11:39:43.361Z,98754.56
2018-03-06T11:40:46.860Z,98764.60
2018-03-06T11:41:50.187Z,98760.84
2018-03-06T11:42:53.576Z,98760.54
2018-03-06T11:43:56.963Z,98762.94
2018-03-06T11:45:00.587Z,98759.97
2018-03-06T11:46:03.904Z,98757.42
2018-03-06T11:47:07.362Z,98761.53
2018-03-06T11:48:10.692Z,98759.19
2018-03-06T11:49:14.301Z,98759.81
2018-03-06T11:50:17.816Z,98764.88
2018-03-06T11:51:21.154Z,98760.66
2018-03-06T11:52:24.810Z,98759.56
2018-03-06T11:53:28.247Z,98765.19
2018-03-06T11:54:32.054Z,98764.59
2018-03-06T11:55:35.950Z,98764.51
2018-03-06T11:56:39.431Z,98767.17
2018-03-06T11:57:43.049Z,98767.35
2018-03-06T11:58:46.478Z,98765.69
2018-03-06T11:59:50.237Z,98767.86
2018-03-06T12:00:53.553Z,98763.35
2018-03-06T12:01:57.072Z,98764.59
2018-03-06T12:03:00.374Z,98768.00
2018-03-06T12:04:03.792Z,98765.34
2018-03-06T12:05:07.142Z,98763.59
2018-03-06T12:06:10.829Z,98764.20
2018-03-06T12:07:14.377Z,98760.41
2018-03-06T12:08:17.661Z,98762.39
2018-03-06T12:09:21.003Z,98758.09
2018-03-06T12:10:24.395Z,98753.78
2018-03-06T12:11:27.797Z,98759.95
2018-03-06T12:12:31.157Z,98758.94
2018-03-06T12:13:34.473Z,98758.52
2018-03-06T12:14:37.968Z,98755.02
2018-03-06T12:15:41.504Z,98759.44
2018-03-06T12:16:44.965Z,98762.43
2018-03-06T12:17:48.495Z,98760.17
2018-03-06T12:18:52.524Z,98765.10
2018-03-06T12:19:57.076Z,98760.17
2018-03-06T12:21:01.006Z,98765.52
2018-03-06T12:22:04.494Z,98762.84
2018-03-06T12:23:08.830Z,98769.02
2018-03-06T12:24:12.256Z,98764.59
2018-03-06T12:25:15.775Z,98767.67
2018-03-06T12:26:19.532Z,98765.10
2018-03-06T12:27:23.089Z,98760.69
2018-03-06T12:28:26.466Z,98768.69
2018-03-06T12:29:29.940Z,98763.77
2018-03-06T12:30:33.358Z,98755.55